Terminal Aerodrome Forecast
Issued by NWS

Home | Current Version | Previous Version | Text Only | Print | Product List | Glossary On
Versions: 1 2 3 4 5 6 7 8 9 10 11 12 13 14 15 16 17 18 19 20 21 22
000
FTUS46 KMFR 221144
TAFRBG
TAF
KRBG 221144Z 2212/2312 VRB03KT 1 1/2SM -SN FEW008 BKN020 OVC040
      TEMPO 2212/2214 1/2SM SN FG VV004
     FM221500 36010KT 5SM -SHSN OVC025
     FM222000 36010KT P6SM SCT025 BKN040
     FM230300 VRB03KT P6SM SCT040=

USA.gov is the U.S. government's official web portal to all federal, state and local government web resources and services.